createdAt,value
2019-01-25T00:00:22.482Z,48.73
2019-01-25T00:02:51.039Z,49.93
2019-01-25T00:05:19.471Z,48.50
2019-01-25T00:07:47.987Z,50.00
2019-01-25T00:10:16.461Z,50.63
2019-01-25T00:12:44.940Z,50.70
2019-01-25T00:15:13.454Z,47.43
2019-01-25T00:17:41.860Z,49.03
2019-01-25T00:20:13.918Z,49.07
2019-01-25T00:22:42.386Z,49.23
2019-01-25T00:25:10.868Z,48.77
2019-01-25T00:27:39.392Z,50.43
2019-01-25T00:30:11.320Z,46.77
2019-01-25T00:32:39.798Z,49.13
2019-01-25T00:35:08.284Z,50.87
2019-01-25T00:37:36.745Z,49.97
2019-01-25T00:40:08.438Z,49.63
2019-01-25T00:42:36.911Z,49.27
2019-01-25T00:45:07.468Z,50.00
2019-01-25T00:47:35.888Z,46.67
2019-01-25T00:50:07.737Z,49.13
2019-01-25T00:52:36.164Z,48.63
2019-01-25T00:55:06.996Z,49.87
2019-01-25T00:57:35.434Z,48.67
2019-01-25T01:00:12.889Z,51.43
2019-01-25T01:02:41.285Z,50.17
2019-01-25T01:05:09.708Z,50.77
2019-01-25T01:07:38.604Z,53.50
2019-01-25T01:10:14.012Z,51.33
2019-01-25T01:12:39.822Z,49.93
2019-01-25T01:15:11.269Z,48.47
2019-01-25T01:17:39.674Z,50.20
2019-01-25T01:20:16.360Z,50.10
2019-01-25T01:22:44.790Z,50.93
2019-01-25T01:25:13.460Z,50.53
2019-01-25T01:28:01.418Z,51.77
2019-01-25T01:30:29.852Z,48.73
2019-01-25T01:32:58.266Z,47.77
2019-01-25T01:35:26.723Z,52.60
2019-01-25T01:37:55.140Z,51.53
2019-01-25T01:40:24.266Z,49.87
2019-01-25T01:42:52.968Z,46.97
2019-01-25T01:45:21.468Z,48.40
2019-01-25T01:47:49.946Z,50.43
2019-01-25T01:50:19.324Z,51.20
2019-01-25T01:52:48.974Z,51.47
2019-01-25T01:55:17.395Z,52.70
2019-01-25T01:57:45.841Z,50.53
2019-01-25T02:00:20.230Z,47.23
2019-01-25T02:02:48.648Z,49.73
2019-01-25T02:05:17.126Z,46.20
2019-01-25T02:07:45.538Z,46.33
2019-01-25T02:10:16.991Z,48.73
2019-01-25T02:12:45.404Z,46.03
2019-01-25T02:15:16.088Z,48.20
2019-01-25T02:17:44.501Z,48.43
2019-01-25T02:20:16.445Z,48.97
2019-01-25T02:22:44.946Z,47.47
2019-01-25T02:25:13.424Z,48.73
2019-01-25T02:27:41.926Z,49.27
2019-01-25T02:30:16.115Z,49.07
2019-01-25T02:32:44.645Z,49.83
2019-01-25T02:35:13.143Z,49.33
2019-01-25T02:37:41.616Z,48.80
2019-01-25T02:40:15.586Z,49.43
2019-01-25T02:42:44.100Z,49.37
2019-01-25T02:45:13.476Z,51.70
2019-01-25T02:47:41.943Z,51.63
2019-01-25T02:50:12.880Z,50.00
2019-01-25T02:52:41.296Z,48.00
2019-01-25T02:55:10.956Z,45.90
2019-01-25T02:57:39.408Z,44.13
2019-01-25T03:00:19.760Z,45.40
2019-01-25T03:02:48.215Z,47.23
2019-01-25T03:05:18.162Z,45.87
2019-01-25T03:07:46.567Z,46.67
2019-01-25T03:10:16.550Z,47.67
2019-01-25T03:12:44.963Z,48.60
2019-01-25T03:15:16.279Z,49.00
2019-01-25T03:17:44.776Z,49.57
2019-01-25T03:20:15.184Z,45.63
2019-01-25T03:22:43.625Z,46.27
2019-01-25T03:25:23.393Z,48.63
2019-01-25T03:27:51.800Z,47.50
2019-01-25T03:30:21.747Z,46.37
2019-01-25T03:32:50.176Z,46.80
2019-01-25T03:35:20.500Z,46.80
2019-01-25T03:37:48.942Z,50.77
2019-01-25T03:40:19.966Z,50.57
2019-01-25T03:42:48.411Z,51.07
2019-01-25T03:45:16.992Z,52.27
2019-01-25T03:47:45.414Z,50.50
2019-01-25T03:50:25.346Z,54.90
2019-01-25T03:52:53.867Z,53.27
2019-01-25T03:55:22.267Z,53.77
2019-01-25T03:57:50.683Z,57.53
2019-01-25T04:00:21.162Z,59.47
2019-01-25T04:02:49.676Z,58.80
2019-01-25T04:05:18.399Z,56.20
2019-01-25T04:07:47.158Z,58.43
2019-01-25T04:10:20.570Z,56.90
2019-01-25T04:12:49.021Z,55.33
2019-01-25T04:15:22.698Z,55.67
2019-01-25T04:17:51.222Z,57.07
2019-01-25T04:20:21.372Z,55.90
2019-01-25T04:22:49.848Z,57.23
2019-01-25T04:25:20.370Z,55.53
2019-01-25T04:27:49.133Z,47.97
2019-01-25T04:30:26.037Z,51.47
2019-01-25T04:32:54.491Z,48.63
2019-01-25T04:35:22.932Z,49.90
2019-01-25T04:37:51.348Z,51.13
2019-01-25T04:40:20.123Z,48.90
2019-01-25T04:42:48.620Z,50.63
2019-01-25T04:45:19.222Z,50.03
2019-01-25T04:47:47.750Z,53.00
2019-01-25T04:50:19.307Z,49.93
2019-01-25T04:52:48.234Z,50.70
2019-01-25T04:55:19.775Z,49.27
2019-01-25T04:57:48.320Z,50.83
2019-01-25T05:00:19.247Z,48.10
2019-01-25T05:02:50.848Z,49.80
2019-01-25T05:05:19.353Z,48.57
2019-01-25T05:07:48.007Z,45.43
2019-01-25T05:10:16.382Z,45.00
2019-01-25T05:12:53.242Z,41.27
2019-01-25T05:15:21.877Z,43.27
2019-01-25T05:17:54.978Z,47.20
2019-01-25T05:20:24.405Z,46.27
2019-01-25T05:22:57.783Z,46.13
2019-01-25T05:25:28.209Z,45.63
2019-01-25T05:27:56.798Z,44.87
2019-01-25T05:30:26.161Z,42.50
2019-01-25T05:32:54.586Z,37.07
2019-01-25T05:35:23.143Z,44.03
2019-01-25T05:37:51.604Z,44.23
2019-01-25T05:40:23.377Z,45.27
2019-01-25T05:42:51.801Z,42.33
2019-01-25T05:45:20.247Z,43.00
2019-01-25T05:47:48.679Z,45.23
2019-01-25T05:50:17.941Z,45.17
2019-01-25T05:52:46.393Z,48.20
2019-01-25T05:55:22.755Z,41.60
2019-01-25T05:57:52.791Z,51.27
2019-01-25T06:00:25.684Z,44.83
2019-01-25T06:02:54.141Z,47.73
2019-01-25T06:05:22.634Z,47.53
2019-01-25T06:07:51.006Z,43.37
2019-01-25T06:10:19.488Z,44.80
2019-01-25T06:12:51.370Z,46.53
2019-01-25T06:15:19.787Z,44.27
2019-01-25T06:17:48.317Z,43.10
2019-01-25T06:20:16.688Z,45.27
2019-01-25T06:22:45.073Z,45.57
2019-01-25T06:25:13.545Z,47.57
2019-01-25T06:27:41.957Z,44.20
2019-01-25T06:30:17.027Z,48.50
2019-01-25T06:32:45.470Z,50.23
2019-01-25T06:35:13.888Z,49.60
2019-01-25T06:37:42.334Z,46.80
2019-01-25T06:40:12.782Z,45.67
2019-01-25T06:42:41.295Z,47.43
2019-01-25T06:45:11.606Z,45.97
2019-01-25T06:47:40.006Z,46.00
2019-01-25T06:50:10.801Z,44.90
2019-01-25T06:52:39.256Z,43.27
2019-01-25T06:55:08.185Z,43.80
2019-01-25T06:57:41.192Z,43.97
2019-01-25T07:00:13.107Z,44.43
2019-01-25T07:02:41.508Z,44.27
2019-01-25T07:05:09.983Z,44.60
2019-01-25T07:07:39.704Z,44.47
2019-01-25T07:10:11.384Z,43.47
2019-01-25T07:12:39.836Z,47.23
2019-01-25T07:15:10.568Z,43.57
2019-01-25T07:17:38.981Z,41.90
2019-01-25T07:20:10.702Z,64.80
2019-01-25T07:22:39.133Z,51.00
2019-01-25T07:25:10.503Z,47.87
2019-01-25T07:27:38.953Z,46.10
2019-01-25T07:30:12.942Z,47.03
2019-01-25T07:32:41.313Z,43.87
2019-01-25T07:35:10.408Z,45.93
2019-01-25T07:37:38.834Z,45.23
2019-01-25T07:40:11.182Z,43.93
2019-01-25T07:42:39.632Z,43.07
2019-01-25T07:45:10.878Z,43.33
2019-01-25T07:47:39.251Z,46.67
2019-01-25T07:50:11.905Z,43.27
2019-01-25T07:52:42.351Z,44.37
2019-01-25T07:55:12.313Z,43.97
2019-01-25T07:57:40.888Z,40.73
2019-01-25T08:00:11.932Z,40.03
2019-01-25T08:02:40.311Z,42.60
2019-01-25T08:05:10.667Z,41.23
2019-01-25T08:07:39.608Z,40.37
2019-01-25T08:10:20.511Z,44.23
2019-01-25T08:12:49.163Z,44.30
2019-01-25T08:15:22.664Z,44.17
2019-01-25T08:17:51.078Z,46.00
2019-01-25T08:20:19.535Z,44.23
2019-01-25T08:22:47.959Z,43.90
2019-01-25T08:25:16.363Z,40.53
2019-01-25T08:27:44.911Z,44.23
2019-01-25T08:30:21.547Z,43.23
2019-01-25T08:32:50.045Z,43.40
2019-01-25T08:35:18.545Z,41.10
2019-01-25T08:37:46.965Z,41.13
2019-01-25T08:40:16.527Z,41.57
2019-01-25T08:43:05.882Z,44.67
2019-01-25T08:45:34.375Z,42.20
2019-01-25T08:48:02.882Z,39.43
2019-01-25T08:50:31.317Z,43.03
2019-01-25T08:52:59.898Z,42.63
2019-01-25T08:55:28.560Z,43.13
2019-01-25T08:57:56.933Z,43.57
2019-01-25T09:00:26.524Z,41.50
2019-01-25T09:02:54.911Z,42.80
2019-01-25T09:05:23.275Z,40.03
2019-01-25T09:07:51.781Z,43.83
2019-01-25T09:10:21.997Z,43.33
2019-01-25T09:12:50.504Z,45.07
2019-01-25T09:15:22.730Z,40.67
2019-01-25T09:17:51.467Z,42.70
2019-01-25T09:20:21.743Z,41.47
2019-01-25T09:22:50.227Z,42.17
2019-01-25T09:25:18.594Z,43.40
2019-01-25T09:27:48.013Z,42.57
2019-01-25T09:30:19.362Z,42.97
2019-01-25T09:32:48.010Z,42.67
2019-01-25T09:35:16.800Z,42.70
2019-01-25T09:37:45.246Z,41.90
2019-01-25T09:40:18.668Z,42.87
2019-01-25T09:42:47.079Z,40.50
2019-01-25T09:45:15.498Z,38.97
2019-01-25T09:47:44.053Z,42.80
2019-01-25T09:50:15.945Z,44.63
2019-01-25T09:52:44.440Z,41.27
2019-01-25T09:55:15.381Z,40.97
2019-01-25T09:57:43.895Z,42.47
2019-01-25T10:00:27.324Z,41.53
2019-01-25T10:02:55.702Z,40.07
2019-01-25T10:05:24.194Z,38.23
2019-01-25T10:07:52.607Z,42.60
2019-01-25T10:10:21.295Z,40.40
2019-01-25T10:12:49.853Z,55.25
2019-01-25T10:15:29.047Z,43.13
2019-01-25T10:17:57.480Z,41.63
2019-01-25T10:20:26.036Z,40.53
2019-01-25T10:22:54.590Z,39.43
2019-01-25T10:25:23.115Z,37.10
2019-01-25T10:27:51.552Z,39.57
2019-01-25T10:30:23.597Z,39.90
2019-01-25T10:32:52.271Z,40.53
2019-01-25T10:35:20.806Z,43.47
2019-01-25T10:37:50.306Z,40.03
2019-01-25T10:40:20.530Z,38.70
2019-01-25T10:42:53.273Z,37.63
2019-01-25T10:45:28.417Z,38.73
2019-01-25T10:47:57.078Z,40.07
2019-01-25T10:50:25.711Z,39.60
2019-01-25T10:52:54.482Z,42.00
2019-01-25T10:55:22.950Z,39.77
2019-01-25T10:57:51.414Z,37.97
2019-01-25T11:00:21.684Z,44.80
2019-01-25T11:02:57.669Z,38.80
2019-01-25T11:05:28.676Z,39.20
2019-01-25T11:07:58.019Z,37.07
2019-01-25T11:10:26.634Z,37.93
2019-01-25T11:13:00.848Z,39.70
2019-01-25T11:15:25.738Z,38.57
2019-01-25T11:17:54.508Z,40.83
2019-01-25T11:20:24.815Z,38.47
2019-01-25T11:22:53.674Z,38.33
2019-01-25T11:25:32.618Z,44.07
2019-01-25T11:28:01.295Z,37.20
2019-01-25T11:30:29.872Z,38.20
2019-01-25T11:32:58.388Z,36.80
2019-01-25T11:35:26.824Z,36.83
2019-01-25T11:37:55.309Z,38.47
2019-01-25T11:40:28.790Z,37.27
2019-01-25T11:42:57.292Z,34.73
2019-01-25T11:45:25.907Z,34.73
2019-01-25T11:47:54.465Z,35.17
2019-01-25T11:50:22.974Z,32.83
2019-01-25T11:52:51.520Z,34.03
2019-01-25T11:55:20.324Z,34.33
2019-01-25T11:57:48.848Z,32.90
2019-01-25T12:00:25.622Z,33.23
2019-01-25T12:02:54.204Z,32.23
2019-01-25T12:05:23.968Z,32.73
2019-01-25T12:07:53.155Z,32.40
2019-01-25T12:10:32.781Z,31.73
2019-01-25T12:13:01.372Z,32.53
2019-01-25T12:15:30.084Z,30.80
2019-01-25T12:17:58.683Z,38.23
2019-01-25T12:20:29.552Z,33.20
2019-01-25T12:22:58.132Z,33.60
2019-01-25T12:25:26.657Z,35.93
2019-01-25T12:27:55.282Z,31.17
2019-01-25T12:30:29.460Z,32.27
2019-01-25T12:32:57.932Z,33.00
2019-01-25T12:35:28.426Z,31.83
2019-01-25T12:37:56.858Z,30.13
2019-01-25T12:40:25.309Z,32.77
2019-01-25T12:42:53.727Z,31.27
2019-01-25T12:45:29.594Z,33.70
2019-01-25T12:47:58.086Z,43.33
2019-01-25T12:50:38.730Z,33.73
2019-01-25T12:53:09.292Z,31.47
2019-01-25T12:55:37.671Z,31.73
2019-01-25T12:58:06.281Z,32.63
2019-01-25T13:00:34.722Z,32.33
2019-01-25T13:03:03.176Z,30.43
2019-01-25T13:05:31.603Z,30.20
2019-01-25T13:08:00.022Z,29.70
2019-01-25T13:10:47.892Z,29.10
2019-01-25T13:13:16.386Z,31.67
2019-01-25T13:15:44.840Z,29.90
2019-01-25T13:18:13.231Z,25.70
2019-01-25T13:20:43.245Z,30.60
2019-01-25T13:23:11.750Z,30.43
2019-01-25T13:25:40.206Z,32.40
2019-01-25T13:28:08.880Z,30.13
2019-01-25T13:30:37.547Z,33.50
2019-01-25T13:33:06.088Z,32.23
2019-01-25T13:35:34.586Z,35.80
2019-01-25T13:38:02.946Z,34.23
2019-01-25T13:40:31.344Z,37.60
2019-01-25T13:42:59.813Z,31.83
2019-01-25T13:45:28.223Z,38.70
2019-01-25T13:47:56.604Z,38.83
2019-01-25T13:50:27.208Z,39.63
2019-01-25T13:52:55.691Z,36.67
2019-01-25T13:55:24.068Z,37.50
2019-01-25T13:57:52.550Z,34.70
2019-01-25T14:00:26.573Z,36.87
2019-01-25T14:02:54.990Z,36.57
2019-01-25T14:05:23.406Z,38.40
2019-01-25T14:07:51.781Z,41.87
2019-01-25T14:10:28.355Z,36.83
2019-01-25T14:12:56.867Z,37.13
2019-01-25T14:15:25.275Z,38.20
2019-01-25T14:17:53.716Z,37.63
2019-01-25T14:20:30.492Z,39.00
2019-01-25T14:22:58.946Z,37.50
2019-01-25T14:25:27.269Z,36.23
2019-01-25T14:27:55.646Z,34.23
2019-01-25T14:30:26.818Z,36.67
2019-01-25T14:32:55.205Z,34.83
2019-01-25T14:35:23.574Z,34.40
2019-01-25T14:37:52.549Z,33.20
2019-01-25T14:40:21.134Z,33.27
2019-01-25T14:42:49.588Z,31.40
2019-01-25T14:45:19.657Z,31.37
2019-01-25T14:47:48.108Z,35.30
2019-01-25T14:50:19.260Z,35.57
2019-01-25T14:52:47.696Z,32.07
2019-01-25T14:55:16.096Z,31.87
2019-01-25T14:57:44.468Z,32.27
2019-01-25T15:00:13.088Z,32.13
2019-01-25T15:02:41.574Z,28.87
2019-01-25T15:05:14.731Z,33.13
2019-01-25T15:07:43.357Z,31.83
2019-01-25T15:10:14.410Z,29.90
2019-01-25T15:12:42.914Z,30.60
2019-01-25T15:15:13.450Z,32.20
2019-01-25T15:17:45.376Z,28.90
2019-01-25T15:20:18.260Z,31.30
2019-01-25T15:22:46.662Z,30.53
2019-01-25T15:25:15.035Z,33.73
2019-01-25T15:27:43.522Z,30.30
2019-01-25T15:30:15.034Z,26.43
2019-01-25T15:33:03.004Z,30.03
2019-01-25T15:35:31.556Z,31.03
2019-01-25T15:37:59.958Z,30.97
2019-01-25T15:40:28.342Z,33.13
2019-01-25T15:42:56.771Z,32.53
2019-01-25T15:45:25.790Z,35.30
2019-01-25T15:47:54.162Z,37.47
2019-01-25T15:50:25.292Z,34.37
2019-01-25T15:52:53.744Z,33.03
2019-01-25T15:55:22.305Z,35.20
2019-01-25T15:57:50.836Z,35.30
2019-01-25T16:00:24.239Z,36.30
2019-01-25T16:02:52.691Z,36.30
2019-01-25T16:05:23.012Z,33.57
2019-01-25T16:07:51.398Z,33.00
2019-01-25T16:10:21.562Z,33.30
2019-01-25T16:12:50.317Z,36.03
2019-01-25T16:15:21.429Z,35.90
2019-01-25T16:17:49.842Z,35.33
2019-01-25T16:20:19.283Z,36.23
2019-01-25T16:22:49.457Z,38.10
2019-01-25T16:25:29.267Z,36.00
2019-01-25T16:27:57.724Z,38.70
2019-01-25T16:30:28.680Z,38.00
2019-01-25T16:32:57.107Z,34.50
2019-01-25T16:35:25.508Z,36.90
2019-01-25T16:37:53.896Z,37.43
2019-01-25T16:40:30.075Z,33.87
2019-01-25T16:42:58.459Z,38.03
2019-01-25T16:45:29.777Z,38.93
2019-01-25T16:47:58.193Z,40.47
2019-01-25T16:50:26.582Z,37.93
2019-01-25T16:52:54.956Z,38.67
2019-01-25T16:55:23.369Z,41.07
2019-01-25T16:57:51.746Z,39.70
2019-01-25T17:00:26.086Z,37.50
2019-01-25T17:02:54.696Z,42.00
2019-01-25T17:05:23.078Z,39.60
2019-01-25T17:07:51.598Z,32.97
2019-01-25T17:10:22.964Z,40.10
2019-01-25T17:12:52.042Z,38.83
2019-01-25T17:15:20.603Z,39.67
2019-01-25T17:17:49.142Z,42.57
2019-01-25T17:20:22.904Z,42.53
2019-01-25T17:22:51.468Z,41.10
2019-01-25T17:25:19.902Z,41.93
2019-01-25T17:27:48.300Z,40.83
2019-01-25T17:30:31.016Z,43.50
2019-01-25T17:33:00.633Z,41.83
2019-01-25T17:35:29.360Z,44.03
2019-01-25T17:37:58.031Z,43.10
2019-01-25T17:40:35.621Z,44.50
2019-01-25T17:43:04.581Z,44.53
2019-01-25T17:45:33.437Z,35.87
2019-01-25T17:48:01.817Z,42.50
2019-01-25T17:50:39.497Z,44.23
2019-01-25T17:53:07.875Z,42.77
2019-01-25T17:55:36.304Z,46.17
2019-01-25T17:58:08.014Z,43.50
2019-01-25T18:00:36.501Z,36.60
2019-01-25T18:03:04.957Z,41.73
2019-01-25T18:05:34.779Z,44.17
2019-01-25T18:08:03.380Z,43.07
2019-01-25T18:10:31.865Z,44.40
2019-01-25T18:15:47.495Z,46.20
2019-01-25T18:18:21.807Z,48.20
2019-01-25T18:20:57.957Z,48.00
2019-01-25T18:23:26.689Z,44.83
2019-01-25T18:25:58.457Z,47.23
2019-01-25T18:28:42.781Z,46.23
2019-01-25T18:31:16.946Z,47.70
2019-01-25T18:33:47.522Z,49.13
2019-01-25T18:36:16.118Z,45.90
2019-01-25T18:38:48.880Z,45.73
2019-01-25T18:41:19.039Z,46.20
2019-01-25T18:43:47.722Z,42.10
2019-01-25T18:46:21.067Z,45.50
2019-01-25T18:51:25.751Z,47.83
2019-01-25T18:54:02.532Z,46.23
2019-01-25T18:56:31.287Z,49.20
2019-01-25T18:58:59.703Z,44.77
2019-01-25T19:01:28.140Z,45.97
2019-01-25T19:03:56.593Z,42.53
2019-01-25T19:06:25.270Z,43.40
2019-01-25T19:08:53.897Z,44.83
2019-01-25T19:11:22.663Z,44.17
2019-01-25T19:13:54.216Z,44.47
2019-01-25T19:16:23.487Z,40.50
2019-01-25T19:18:52.119Z,46.63
2019-01-25T19:21:23.877Z,45.63
2019-01-25T19:23:52.795Z,42.50
2019-01-25T19:26:23.164Z,40.50
2019-01-25T19:28:51.758Z,39.93
2019-01-25T19:31:24.045Z,39.67
2019-01-25T19:33:55.352Z,42.63
2019-01-25T19:36:24.479Z,40.87
2019-01-25T19:38:57.414Z,44.23
2019-01-25T19:41:27.880Z,43.20
2019-01-25T19:43:56.406Z,44.87
2019-01-25T19:46:25.032Z,42.67
2019-01-25T19:48:53.697Z,40.80
2019-01-25T19:51:34.148Z,45.57
2019-01-25T19:54:02.685Z,48.77
2019-01-25T19:56:31.412Z,58.70
2019-01-25T19:58:59.928Z,64.43
2019-01-25T20:01:28.337Z,60.40
2019-01-25T20:03:56.908Z,60.37
2019-01-25T20:06:25.379Z,56.20
2019-01-25T20:08:54.030Z,60.70
2019-01-25T20:11:24.349Z,63.03
2019-01-25T20:13:53.018Z,58.33
2019-01-25T20:16:21.736Z,64.57
2019-01-25T20:18:50.315Z,61.53
2019-01-25T20:21:18.953Z,57.80
2019-01-25T20:23:49.073Z,59.33
2019-01-25T20:26:17.695Z,53.53
2019-01-25T20:28:46.285Z,60.20
2019-01-25T20:31:14.602Z,59.17
2019-01-25T20:33:46.496Z,61.37
2019-01-25T20:36:37.306Z,55.93
2019-01-25T20:39:10.230Z,57.37
2019-01-25T20:41:39.143Z,53.00
2019-01-25T20:44:07.573Z,52.93
2019-01-25T20:46:36.051Z,57.97
2019-01-25T20:49:06.790Z,58.43
2019-01-25T20:51:35.156Z,56.37
2019-01-25T20:54:05.806Z,53.60
2019-01-25T20:56:35.075Z,50.63
2019-01-25T20:59:03.516Z,61.00
2019-01-25T21:01:31.943Z,55.33
2019-01-25T21:04:00.595Z,54.93
2019-01-25T21:06:29.182Z,60.13
2019-01-25T21:08:57.679Z,61.40
2019-01-25T21:11:26.693Z,59.27
2019-01-25T21:13:55.264Z,66.23
2019-01-25T21:16:23.776Z,63.20
2019-01-25T21:18:52.259Z,72.37
2019-01-25T21:21:20.690Z,56.00
2019-01-25T21:23:49.193Z,59.10
2019-01-25T21:26:17.692Z,62.57
2019-01-25T21:28:46.211Z,69.63
2019-01-25T21:31:14.713Z,67.40
2019-01-25T21:33:43.275Z,65.67
2019-01-25T21:36:11.821Z,62.13
2019-01-25T21:38:40.236Z,63.80
2019-01-25T21:41:08.829Z,62.27
2019-01-25T21:43:37.289Z,59.30
2019-01-25T21:46:05.832Z,59.80
2019-01-25T21:48:34.357Z,64.50
2019-01-25T21:51:02.897Z,61.60
2019-01-25T21:53:31.311Z,59.83
2019-01-25T21:55:59.855Z,64.37
2019-01-25T21:58:28.546Z,61.27
2019-01-25T22:00:57.052Z,58.27
2019-01-25T22:03:25.498Z,59.60
2019-01-25T22:05:53.888Z,64.73
2019-01-25T22:08:22.549Z,62.57
2019-01-25T22:10:50.970Z,64.97
2019-01-25T22:13:19.388Z,66.77
2019-01-25T22:15:51.002Z,67.33
2019-01-25T22:18:18.012Z,65.43
2019-01-25T22:20:46.467Z,68.47
2019-01-25T22:23:14.825Z,67.60
2019-01-25T22:25:43.189Z,64.37
2019-01-25T22:28:11.632Z,62.83
2019-01-25T22:30:40.263Z,63.57
2019-01-25T22:33:09.050Z,61.93
2019-01-25T22:35:39.475Z,64.60
2019-01-25T22:38:07.981Z,69.57
2019-01-25T22:40:36.737Z,70.20
2019-01-25T22:43:05.481Z,70.30
2019-01-25T22:45:34.360Z,72.67
2019-01-25T22:48:03.046Z,62.67
2019-01-25T22:50:33.515Z,66.20
2019-01-25T22:53:02.095Z,69.20
2019-01-25T22:55:32.431Z,71.27
2019-01-25T22:58:01.182Z,71.73
2019-01-25T23:00:46.650Z,68.77
2019-01-25T23:03:18.086Z,64.27
2019-01-25T23:06:21.658Z,68.90
2019-01-25T23:08:50.198Z,70.90
2019-01-25T23:11:18.734Z,70.63
2019-01-25T23:13:47.140Z,68.20
2019-01-25T23:16:15.532Z,68.43
2019-01-25T23:18:43.968Z,76.13
2019-01-25T23:21:12.426Z,80.17
2019-01-25T23:23:40.962Z,75.63
2019-01-25T23:26:09.375Z,79.10
2019-01-25T23:28:37.867Z,73.70
2019-01-25T23:31:06.340Z,81.17
2019-01-25T23:33:34.813Z,79.77
2019-01-25T23:36:03.338Z,77.43
2019-01-25T23:38:31.773Z,79.13
2019-01-25T23:41:00.299Z,77.17
2019-01-25T23:43:28.782Z,76.80
2019-01-25T23:45:57.289Z,81.47
2019-01-25T23:48:27.570Z,74.50
2019-01-25T23:50:56.006Z,71.43
2019-01-25T23:53:24.366Z,73.63
2019-01-25T23:55:52.698Z,72.67
2019-01-25T23:58:21.189Z,71.37
